Bunola, PA (15020)

2:02 AM EDT on September 05, 2015 (GMT -0400)
Sugar Run Road | | Change Station
CLOSE
Current Station
Personal Weather Station
Location: Venetia, PA
Elevation: 1096 ft
Nearby Weather Stations

Elev 1096 ft 40.23 °N, 80.04 °W | Updated 2 minutes ago

Clear
Clear
65.3 °F
Feels Like 65.3 °F
N
0.0
Wind Variable Wind from East
Gusts 0.0 mph

Today
High -- | Low -- °F
--% Chance of Precip.
Yesterday
High -- | Low -- °F
Precip. -- in
6:50 AM 7:45 PM
Waning Gibbous, 52% visible
Pressure 30.12 in
Visibility 5.0 miles
Clouds Clear
Dew Point 58 °F
Humidity 77%
Rainfall 0.00 in
Snow Depth Not available.
UV 0 out of 12
Pollen 9.00 out of 12
Air Quality Not available.
Flu Activity Not available.
METAR KAGC 050553Z 00000KT 5SM HZ CLR 21/17 A3013 RMK AO2 SLP197 T02110172 10261 20206 51003
Pressure 30.12 in
Visibility 5.0 miles
Clouds Clear
Dew Point 58 °F
Humidity 77%
Rainfall 0.00 in
Snow Depth Not available.
UV 0 out of 12
Pollen 9.00 out of 12
Air Quality Not available.
Flu Activity Not available.
METAR KAGC 050553Z 00000KT 5SM HZ CLR 21/17 A3013 RMK AO2 SLP197 T02110172 10261 20206 51003

10-Day Weather Forecast

×

Almanac

Astronomy

Sep. 05, 2015 Rise Set
Actual Time
Civil Twilight
Nautical Twilight
Astronomical Twilight
Moon
Length of Visible Light
Length of Day
Tomorrow will be .
, % of the Moon is Illuminated

Today's Extremes

State Highs State Lows

Community

WunderPhotos

Upload Photos

1,852,431 photos uploaded!

WunderBlogs® & News

Nearby

Air Quality

  Air Quality AQ Index Pollutant
Not available.

Snow Depth

Station Depth Elevation

Earthquake Activity

City Distance Mag. Time & Date
Minimum magnitude displayed is 2.5.

Coastal Water Temperatures

Place Temperature

Stations

Nearby Weather Stations

Station Location Temp. Windchill Dew Point Humidity Wind Precip. Elev Updated Type